sensor_id;sensor_type;location;lat;lon;timestamp;temperature;humidity
52211;DHT22;38179;52.756;6.906;2023-02-02T00:01:48;4.10;99.90
52211;DHT22;38179;52.756;6.906;2023-02-02T00:04:20;4.10;99.90
52211;DHT22;38179;52.756;6.906;2023-02-02T00:06:47;4.10;99.90
52211;DHT22;38179;52.756;6.906;2023-02-02T00:09:15;4.10;99.90
52211;DHT22;38179;52.756;6.906;2023-02-02T00:11:42;4.10;99.90
52211;DHT22;38179;52.756;6.906;2023-02-02T00:14:09;4.10;99.90
52211;DHT22;38179;52.756;6.906;2023-02-02T00:16:37;4.10;99.90
52211;DHT22;38179;52.756;6.906;2023-02-02T00:19:10;4.10;99.90
52211;DHT22;38179;52.756;6.906;2023-02-02T00:21:37;4.10;99.90
52211;DHT22;38179;52.756;6.906;2023-02-02T00:24:04;4.00;99.90
52211;DHT22;38179;52.756;6.906;2023-02-02T00:26:30;4.00;99.90
52211;DHT22;38179;52.756;6.906;2023-02-02T00:28:56;4.00;99.90
52211;DHT22;38179;52.756;6.906;2023-02-02T00:31:22;4.10;99.90
52211;DHT22;38179;52.756;6.906;2023-02-02T00:33:49;4.00;99.90
52211;DHT22;38179;52.756;6.906;2023-02-02T00:36:16;4.00;99.90
52211;DHT22;38179;52.756;6.906;2023-02-02T00:38:42;4.00;99.90
52211;DHT22;38179;52.756;6.906;2023-02-02T00:41:08;4.00;99.90
52211;DHT22;38179;52.756;6.906;2023-02-02T00:43:34;4.00;99.90
52211;DHT22;38179;52.756;6.906;2023-02-02T00:46:00;4.00;99.90
52211;DHT22;38179;52.756;6.906;2023-02-02T00:48:26;4.00;99.90
52211;DHT22;38179;52.756;6.906;2023-02-02T00:50:53;4.00;99.90
52211;DHT22;38179;52.756;6.906;2023-02-02T00:53:19;4.00;99.90
52211;DHT22;38179;52.756;6.906;2023-02-02T00:55:45;4.00;99.90
52211;DHT22;38179;52.756;6.906;2023-02-02T00:58:10;4.00;99.90
52211;DHT22;38179;52.756;6.906;2023-02-02T01:00:36;4.00;99.90
52211;DHT22;38179;52.756;6.906;2023-02-02T01:03:03;4.10;99.90
52211;DHT22;38179;52.756;6.906;2023-02-02T01:05:31;4.10;99.90
52211;DHT22;38179;52.756;6.906;2023-02-02T01:07:57;4.10;99.90
52211;DHT22;38179;52.756;6.906;2023-02-02T01:10:23;4.10;99.90
52211;DHT22;38179;52.756;6.906;2023-02-02T01:12:49;4.10;99.90
52211;DHT22;38179;52.756;6.906;2023-02-02T01:15:15;4.10;99.90
52211;DHT22;38179;52.756;6.906;2023-02-02T01:17:41;4.10;99.90
52211;DHT22;38179;52.756;6.906;2023-02-02T01:20:14;4.10;99.90
52211;DHT22;38179;52.756;6.906;2023-02-02T01:22:40;4.20;99.90
52211;DHT22;38179;52.756;6.906;2023-02-02T01:25:06;4.20;99.90
52211;DHT22;38179;52.756;6.906;2023-02-02T01:27:32;4.20;99.90
52211;DHT22;38179;52.756;6.906;2023-02-02T01:29:58;4.20;99.90
52211;DHT22;38179;52.756;6.906;2023-02-02T01:32:24;4.20;99.90
52211;DHT22;38179;52.756;6.906;2023-02-02T01:34:50;4.20;99.90
52211;DHT22;38179;52.756;6.906;2023-02-02T01:37:16;4.20;99.90
52211;DHT22;38179;52.756;6.906;2023-02-02T01:39:42;4.30;99.90
52211;DHT22;38179;52.756;6.906;2023-02-02T01:42:19;4.30;99.90
52211;DHT22;38179;52.756;6.906;2023-02-02T01:47:20;4.30;99.90
52211;DHT22;38179;52.756;6.906;2023-02-02T01:49:47;4.30;99.90
52211;DHT22;38179;52.756;6.906;2023-02-02T01:52:15;4.30;99.90
52211;DHT22;38179;52.756;6.906;2023-02-02T01:54:51;4.40;99.90
52211;DHT22;38179;52.756;6.906;2023-02-02T01:57:31;4.30;99.90
52211;DHT22;38179;52.756;6.906;2023-02-02T01:59:59;4.40;99.90
52211;DHT22;38179;52.756;6.906;2023-02-02T02:02:26;4.40;99.90
52211;DHT22;38179;52.756;6.906;2023-02-02T02:04:53;4.50;99.90
52211;DHT22;38179;52.756;6.906;2023-02-02T02:07:20;4.50;99.90
52211;DHT22;38179;52.756;6.906;2023-02-02T02:09:46;4.60;99.90
52211;DHT22;38179;52.756;6.906;2023-02-02T02:12:13;4.70;99.90
52211;DHT22;38179;52.756;6.906;2023-02-02T02:14:42;4.70;99.90
52211;DHT22;38179;52.756;6.906;2023-02-02T02:23:54;4.80;99.90
52211;DHT22;38179;52.756;6.906;2023-02-02T02:32:49;5.00;99.90
52211;DHT22;38179;52.756;6.906;2023-02-02T02:35:27;5.00;99.90
52211;DHT22;38179;52.756;6.906;2023-02-02T02:40:36;5.10;99.90
52211;DHT22;38179;52.756;6.906;2023-02-02T02:43:17;5.20;99.90
52211;DHT22;38179;52.756;6.906;2023-02-02T02:45:45;5.20;99.90
52211;DHT22;38179;52.756;6.906;2023-02-02T02:48:11;5.20;99.90
52211;DHT22;38179;52.756;6.906;2023-02-02T02:50:38;5.20;99.90
52211;DHT22;38179;52.756;6.906;2023-02-02T02:53:10;5.30;99.90
52211;DHT22;38179;52.756;6.906;2023-02-02T02:55:50;5.20;99.90
52211;DHT22;38179;52.756;6.906;2023-02-02T02:58:32;5.20;99.90
52211;DHT22;38179;52.756;6.906;2023-02-02T03:06:21;5.30;99.90
52211;DHT22;38179;52.756;6.906;2023-02-02T03:09:27;5.30;99.90
52211;DHT22;38179;52.756;6.906;2023-02-02T03:11:55;5.30;99.90
52211;DHT22;38179;52.756;6.906;2023-02-02T03:14:21;5.30;99.90
52211;DHT22;38179;52.756;6.906;2023-02-02T03:16:50;5.30;99.90
52211;DHT22;38179;52.756;6.906;2023-02-02T03:19:16;5.40;99.90
52211;DHT22;38179;52.756;6.906;2023-02-02T03:21:42;5.40;99.90
52211;DHT22;38179;52.756;6.906;2023-02-02T03:24:08;5.40;99.90
52211;DHT22;38179;52.756;6.906;2023-02-02T03:26:34;5.40;99.90
52211;DHT22;38179;52.756;6.906;2023-02-02T03:29:00;5.40;99.90
52211;DHT22;38179;52.756;6.906;2023-02-02T03:31:27;5.40;99.90
52211;DHT22;38179;52.756;6.906;2023-02-02T03:33:54;5.40;99.90
52211;DHT22;38179;52.756;6.906;2023-02-02T03:36:21;5.50;99.90
52211;DHT22;38179;52.756;6.906;2023-02-02T03:38:47;5.40;99.90
52211;DHT22;38179;52.756;6.906;2023-02-02T03:41:13;5.40;99.90
52211;DHT22;38179;52.756;6.906;2023-02-02T03:43:39;5.40;99.90
52211;DHT22;38179;52.756;6.906;2023-02-02T03:46:05;5.40;99.90
52211;DHT22;38179;52.756;6.906;2023-02-02T03:48:35;5.40;99.90
52211;DHT22;38179;52.756;6.906;2023-02-02T03:51:14;5.40;99.90
52211;DHT22;38179;52.756;6.906;2023-02-02T03:53:41;5.40;99.90
52211;DHT22;38179;52.756;6.906;2023-02-02T03:56:12;5.40;99.90
52211;DHT22;38179;52.756;6.906;2023-02-02T03:58:38;5.40;99.90
52211;DHT22;38179;52.756;6.906;2023-02-02T04:01:06;5.30;99.90
52211;DHT22;38179;52.756;6.906;2023-02-02T04:03:33;5.30;99.90
52211;DHT22;38179;52.756;6.906;2023-02-02T04:05:59;5.30;99.90
52211;DHT22;38179;52.756;6.906;2023-02-02T04:08:25;5.30;99.90
52211;DHT22;38179;52.756;6.906;2023-02-02T04:10:51;5.20;99.90
52211;DHT22;38179;52.756;6.906;2023-02-02T04:13:17;5.20;99.90
52211;DHT22;38179;52.756;6.906;2023-02-02T04:15:43;5.10;99.90
52211;DHT22;38179;52.756;6.906;2023-02-02T04:18:09;5.10;99.90
52211;DHT22;38179;52.756;6.906;2023-02-02T04:20:35;5.10;99.90
52211;DHT22;38179;52.756;6.906;2023-02-02T04:23:01;5.10;99.90
52211;DHT22;38179;52.756;6.906;2023-02-02T04:25:26;5.00;99.90
52211;DHT22;38179;52.756;6.906;2023-02-02T04:27:52;5.00;99.90
52211;DHT22;38179;52.756;6.906;2023-02-02T04:30:18;5.00;99.90
52211;DHT22;38179;52.756;6.906;2023-02-02T04:32:45;5.00;99.90
52211;DHT22;38179;52.756;6.906;2023-02-02T04:35:11;5.00;99.90
52211;DHT22;38179;52.756;6.906;2023-02-02T04:37:37;5.00;99.90
52211;DHT22;38179;52.756;6.906;2023-02-02T04:40:04;5.00;99.90
52211;DHT22;38179;52.756;6.906;2023-02-02T04:42:30;5.00;99.90
52211;DHT22;38179;52.756;6.906;2023-02-02T04:44:57;5.00;99.90
52211;DHT22;38179;52.756;6.906;2023-02-02T04:47:23;4.90;99.90
52211;DHT22;38179;52.756;6.906;2023-02-02T04:49:49;4.90;99.90
52211;DHT22;38179;52.756;6.906;2023-02-02T04:52:15;4.80;99.90
52211;DHT22;38179;52.756;6.906;2023-02-02T04:54:41;4.80;99.90
52211;DHT22;38179;52.756;6.906;2023-02-02T04:57:07;4.80;99.90
52211;DHT22;38179;52.756;6.906;2023-02-02T04:59:33;4.80;99.90
52211;DHT22;38179;52.756;6.906;2023-02-02T05:02:00;4.80;99.90
52211;DHT22;38179;52.756;6.906;2023-02-02T05:04:26;4.70;99.90
52211;DHT22;38179;52.756;6.906;2023-02-02T05:06:52;4.70;99.90
52211;DHT22;38179;52.756;6.906;2023-02-02T05:09:18;4.70;99.90
52211;DHT22;38179;52.756;6.906;2023-02-02T05:11:44;4.70;99.90
52211;DHT22;38179;52.756;6.906;2023-02-02T05:14:10;4.70;99.90
52211;DHT22;38179;52.756;6.906;2023-02-02T05:16:37;4.60;99.90
52211;DHT22;38179;52.756;6.906;2023-02-02T05:19:04;4.60;99.90
52211;DHT22;38179;52.756;6.906;2023-02-02T05:21:30;4.60;99.90
52211;DHT22;38179;52.756;6.906;2023-02-02T05:23:56;4.50;99.90
52211;DHT22;38179;52.756;6.906;2023-02-02T05:26:25;4.50;99.90
52211;DHT22;38179;52.756;6.906;2023-02-02T05:28:52;4.50;99.90
52211;DHT22;38179;52.756;6.906;2023-02-02T05:31:19;4.50;99.90
52211;DHT22;38179;52.756;6.906;2023-02-02T05:33:45;4.50;99.90
52211;DHT22;38179;52.756;6.906;2023-02-02T05:36:11;4.50;99.90
52211;DHT22;38179;52.756;6.906;2023-02-02T05:38:37;4.50;99.90
52211;DHT22;38179;52.756;6.906;2023-02-02T05:41:04;4.50;99.90
52211;DHT22;38179;52.756;6.906;2023-02-02T05:43:31;4.50;99.90
52211;DHT22;38179;52.756;6.906;2023-02-02T05:45:57;4.40;99.90
52211;DHT22;38179;52.756;6.906;2023-02-02T05:48:23;4.40;99.90
52211;DHT22;38179;52.756;6.906;2023-02-02T05:51:00;4.50;99.90
52211;DHT22;38179;52.756;6.906;2023-02-02T05:53:29;4.50;99.90
52211;DHT22;38179;52.756;6.906;2023-02-02T05:55:55;4.40;99.90
52211;DHT22;38179;52.756;6.906;2023-02-02T05:58:21;4.40;99.90
52211;DHT22;38179;52.756;6.906;2023-02-02T06:00:47;4.40;99.90
52211;DHT22;38179;52.756;6.906;2023-02-02T06:03:13;4.40;99.90
52211;DHT22;38179;52.756;6.906;2023-02-02T06:05:39;4.40;99.90
52211;DHT22;38179;52.756;6.906;2023-02-02T06:08:05;4.50;99.90
52211;DHT22;38179;52.756;6.906;2023-02-02T06:10:32;4.50;99.90
52211;DHT22;38179;52.756;6.906;2023-02-02T06:12:58;4.40;99.90
52211;DHT22;38179;52.756;6.906;2023-02-02T06:15:24;4.40;99.90
52211;DHT22;38179;52.756;6.906;2023-02-02T06:17:52;4.40;99.90
52211;DHT22;38179;52.756;6.906;2023-02-02T06:20:23;4.40;99.90
52211;DHT22;38179;52.756;6.906;2023-02-02T06:22:49;4.40;99.90
52211;DHT22;38179;52.756;6.906;2023-02-02T06:25:15;4.40;99.90
52211;DHT22;38179;52.756;6.906;2023-02-02T06:27:41;4.40;99.90
52211;DHT22;38179;52.756;6.906;2023-02-02T06:30:11;4.40;99.90
52211;DHT22;38179;52.756;6.906;2023-02-02T06:32:37;4.40;99.90
52211;DHT22;38179;52.756;6.906;2023-02-02T06:35:04;4.40;99.90
52211;DHT22;38179;52.756;6.906;2023-02-02T06:37:31;4.30;99.90
52211;DHT22;38179;52.756;6.906;2023-02-02T06:39:59;4.30;99.90
52211;DHT22;38179;52.756;6.906;2023-02-02T06:42:25;4.40;99.90
52211;DHT22;38179;52.756;6.906;2023-02-02T06:44:51;4.40;99.90
52211;DHT22;38179;52.756;6.906;2023-02-02T06:47:17;4.30;99.90
52211;DHT22;38179;52.756;6.906;2023-02-02T06:49:43;4.30;99.90
52211;DHT22;38179;52.756;6.906;2023-02-02T06:52:09;4.40;99.90
52211;DHT22;38179;52.756;6.906;2023-02-02T06:54:35;4.40;99.90
52211;DHT22;38179;52.756;6.906;2023-02-02T06:57:01;4.40;99.90
52211;DHT22;38179;52.756;6.906;2023-02-02T06:59:27;4.30;99.90
52211;DHT22;38179;52.756;6.906;2023-02-02T07:01:54;4.40;99.90
52211;DHT22;38179;52.756;6.906;2023-02-02T07:04:20;4.30;99.90
52211;DHT22;38179;52.756;6.906;2023-02-02T07:06:46;4.30;99.90
52211;DHT22;38179;52.756;6.906;2023-02-02T07:09:12;4.30;99.90
52211;DHT22;38179;52.756;6.906;2023-02-02T07:11:39;4.40;99.90
52211;DHT22;38179;52.756;6.906;2023-02-02T07:14:05;4.40;99.90
52211;DHT22;38179;52.756;6.906;2023-02-02T07:16:32;4.40;99.90
52211;DHT22;38179;52.756;6.906;2023-02-02T07:18:58;4.40;99.90
52211;DHT22;38179;52.756;6.906;2023-02-02T07:21:25;4.40;99.90
52211;DHT22;38179;52.756;6.906;2023-02-02T07:24:00;4.40;99.90
52211;DHT22;38179;52.756;6.906;2023-02-02T07:26:27;4.40;99.90
52211;DHT22;38179;52.756;6.906;2023-02-02T07:28:54;4.40;99.90
52211;DHT22;38179;52.756;6.906;2023-02-02T07:31:23;4.40;99.90
52211;DHT22;38179;52.756;6.906;2023-02-02T07:33:50;4.40;99.90
52211;DHT22;38179;52.756;6.906;2023-02-02T07:36:18;4.40;99.90
52211;DHT22;38179;52.756;6.906;2023-02-02T07:38:47;4.40;99.90
52211;DHT22;38179;52.756;6.906;2023-02-02T07:41:14;4.40;99.90
52211;DHT22;38179;52.756;6.906;2023-02-02T07:43:40;4.40;99.90
52211;DHT22;38179;52.756;6.906;2023-02-02T07:46:07;4.50;99.90
52211;DHT22;38179;52.756;6.906;2023-02-02T07:48:35;4.40;99.90
52211;DHT22;38179;52.756;6.906;2023-02-02T07:51:03;4.50;99.90
52211;DHT22;38179;52.756;6.906;2023-02-02T07:53:31;4.50;99.90
52211;DHT22;38179;52.756;6.906;2023-02-02T07:56:10;4.50;99.90
52211;DHT22;38179;52.756;6.906;2023-02-02T07:58:37;4.50;99.90
52211;DHT22;38179;52.756;6.906;2023-02-02T08:01:04;4.50;99.90
52211;DHT22;38179;52.756;6.906;2023-02-02T08:03:31;4.50;99.90
52211;DHT22;38179;52.756;6.906;2023-02-02T08:05:58;4.50;99.90
52211;DHT22;38179;52.756;6.906;2023-02-02T08:08:25;4.50;99.90
52211;DHT22;38179;52.756;6.906;2023-02-02T08:10:52;4.50;99.90
52211;DHT22;38179;52.756;6.906;2023-02-02T08:13:19;4.50;99.90
52211;DHT22;38179;52.756;6.906;2023-02-02T08:15:45;4.50;99.90
52211;DHT22;38179;52.756;6.906;2023-02-02T08:18:11;4.50;99.90
52211;DHT22;38179;52.756;6.906;2023-02-02T08:20:39;4.50;99.90
52211;DHT22;38179;52.756;6.906;2023-02-02T08:23:05;4.60;99.90
52211;DHT22;38179;52.756;6.906;2023-02-02T08:25:38;4.50;99.90
52211;DHT22;38179;52.756;6.906;2023-02-02T08:28:05;4.60;99.90
52211;DHT22;38179;52.756;6.906;2023-02-02T08:30:31;4.60;99.90
52211;DHT22;38179;52.756;6.906;2023-02-02T08:32:57;4.60;99.90
52211;DHT22;38179;52.756;6.906;2023-02-02T08:35:23;4.60;99.90
52211;DHT22;38179;52.756;6.906;2023-02-02T08:37:50;4.60;99.90
52211;DHT22;38179;52.756;6.906;2023-02-02T08:40:16;4.70;99.90
52211;DHT22;38179;52.756;6.906;2023-02-02T08:42:43;4.70;99.90
52211;DHT22;38179;52.756;6.906;2023-02-02T08:45:12;4.70;99.90
52211;DHT22;38179;52.756;6.906;2023-02-02T08:47:38;4.70;99.90
52211;DHT22;38179;52.756;6.906;2023-02-02T08:50:05;4.70;99.90
52211;DHT22;38179;52.756;6.906;2023-02-02T08:52:31;4.70;99.90
52211;DHT22;38179;52.756;6.906;2023-02-02T08:54:57;4.70;99.90
52211;DHT22;38179;52.756;6.906;2023-02-02T08:57:23;4.70;99.90
52211;DHT22;38179;52.756;6.906;2023-02-02T08:59:49;4.80;99.90
52211;DHT22;38179;52.756;6.906;2023-02-02T09:02:15;4.80;99.90
52211;DHT22;38179;52.756;6.906;2023-02-02T09:04:42;4.80;99.90
52211;DHT22;38179;52.756;6.906;2023-02-02T09:07:10;4.80;99.90
52211;DHT22;38179;52.756;6.906;2023-02-02T09:09:36;4.80;99.90
52211;DHT22;38179;52.756;6.906;2023-02-02T09:12:03;4.90;99.90
52211;DHT22;38179;52.756;6.906;2023-02-02T09:14:29;4.90;99.90
52211;DHT22;38179;52.756;6.906;2023-02-02T09:16:56;4.90;99.90
52211;DHT22;38179;52.756;6.906;2023-02-02T09:19:22;4.90;99.90
52211;DHT22;38179;52.756;6.906;2023-02-02T09:21:49;4.90;99.90
52211;DHT22;38179;52.756;6.906;2023-02-02T09:24:16;5.00;99.90
52211;DHT22;38179;52.756;6.906;2023-02-02T09:26:43;5.00;99.90
52211;DHT22;38179;52.756;6.906;2023-02-02T09:29:15;5.00;99.90
52211;DHT22;38179;52.756;6.906;2023-02-02T09:31:43;5.00;99.90
52211;DHT22;38179;52.756;6.906;2023-02-02T09:34:11;5.10;99.90
52211;DHT22;38179;52.756;6.906;2023-02-02T09:36:38;5.10;99.90
52211;DHT22;38179;52.756;6.906;2023-02-02T09:39:05;5.10;99.90
52211;DHT22;38179;52.756;6.906;2023-02-02T09:49:51;5.20;99.90
52211;DHT22;38179;52.756;6.906;2023-02-02T09:52:29;5.20;99.90
52211;DHT22;38179;52.756;6.906;2023-02-02T09:55:02;5.20;99.90
52211;DHT22;38179;52.756;6.906;2023-02-02T09:57:37;5.20;99.90
52211;DHT22;38179;52.756;6.906;2023-02-02T10:00:06;5.20;99.90
52211;DHT22;38179;52.756;6.906;2023-02-02T10:02:41;5.30;99.90
52211;DHT22;38179;52.756;6.906;2023-02-02T10:05:21;5.30;99.90
52211;DHT22;38179;52.756;6.906;2023-02-02T10:07:53;5.30;99.90
52211;DHT22;38179;52.756;6.906;2023-02-02T10:10:26;5.40;99.90
52211;DHT22;38179;52.756;6.906;2023-02-02T10:13:01;5.40;99.90
52211;DHT22;38179;52.756;6.906;2023-02-02T10:21:02;5.40;99.90
52211;DHT22;38179;52.756;6.906;2023-02-02T10:23:38;5.50;99.90
52211;DHT22;38179;52.756;6.906;2023-02-02T10:26:37;5.50;99.90
52211;DHT22;38179;52.756;6.906;2023-02-02T10:32:15;5.50;99.90
52211;DHT22;38179;52.756;6.906;2023-02-02T10:35:02;5.50;99.90
52211;DHT22;38179;52.756;6.906;2023-02-02T10:46:21;5.60;99.90
52211;DHT22;38179;52.756;6.906;2023-02-02T10:48:48;5.60;99.90
52211;DHT22;38179;52.756;6.906;2023-02-02T10:51:23;5.60;99.90
52211;DHT22;38179;52.756;6.906;2023-02-02T10:53:53;5.60;99.90
52211;DHT22;38179;52.756;6.906;2023-02-02T10:56:38;5.60;99.90
52211;DHT22;38179;52.756;6.906;2023-02-02T10:59:14;5.60;99.90
52211;DHT22;38179;52.756;6.906;2023-02-02T11:01:42;5.60;99.90
52211;DHT22;38179;52.756;6.906;2023-02-02T11:04:09;5.60;99.90
52211;DHT22;38179;52.756;6.906;2023-02-02T11:06:55;5.60;99.90
52211;DHT22;38179;52.756;6.906;2023-02-02T11:09:27;5.60;99.90
52211;DHT22;38179;52.756;6.906;2023-02-02T11:12:19;5.60;99.90
52211;DHT22;38179;52.756;6.906;2023-02-02T11:14:51;5.60;99.90
52211;DHT22;38179;52.756;6.906;2023-02-02T11:17:23;5.60;99.90
52211;DHT22;38179;52.756;6.906;2023-02-02T11:19:50;5.60;99.90
52211;DHT22;38179;52.756;6.906;2023-02-02T11:22:45;5.70;99.90
52211;DHT22;38179;52.756;6.906;2023-02-02T11:25:33;5.70;99.90
52211;DHT22;38179;52.756;6.906;2023-02-02T11:28:18;5.70;99.90
52211;DHT22;38179;52.756;6.906;2023-02-02T11:30:49;5.70;99.90
52211;DHT22;38179;52.756;6.906;2023-02-02T11:33:29;5.70;99.90
52211;DHT22;38179;52.756;6.906;2023-02-02T11:35:58;5.70;99.90
52211;DHT22;38179;52.756;6.906;2023-02-02T11:38:25;5.70;99.90
52211;DHT22;38179;52.756;6.906;2023-02-02T11:40:56;5.70;99.90
52211;DHT22;38179;52.756;6.906;2023-02-02T11:46:06;5.70;99.90
52211;DHT22;38179;52.756;6.906;2023-02-02T11:51:23;5.70;99.90
52211;DHT22;38179;52.756;6.906;2023-02-02T11:53:59;5.60;99.90
52211;DHT22;38179;52.756;6.906;2023-02-02T11:56:26;5.70;99.90
52211;DHT22;38179;52.756;6.906;2023-02-02T11:58:54;5.60;99.90
52211;DHT22;38179;52.756;6.906;2023-02-02T12:01:27;5.70;99.90
52211;DHT22;38179;52.756;6.906;2023-02-02T12:03:56;5.70;99.90
52211;DHT22;38179;52.756;6.906;2023-02-02T12:06:24;5.70;99.90
52211;DHT22;38179;52.756;6.906;2023-02-02T12:08:58;5.70;99.90
52211;DHT22;38179;52.756;6.906;2023-02-02T12:14:33;5.70;99.90
52211;DHT22;38179;52.756;6.906;2023-02-02T12:22:55;5.70;99.90
52211;DHT22;38179;52.756;6.906;2023-02-02T12:37:07;5.70;99.90
52211;DHT22;38179;52.756;6.906;2023-02-02T12:47:36;5.70;99.90
52211;DHT22;38179;52.756;6.906;2023-02-02T12:56:31;5.70;99.90
52211;DHT22;38179;52.756;6.906;2023-02-02T13:07:19;5.70;99.90
52211;DHT22;38179;52.756;6.906;2023-02-02T13:12:29;5.70;99.90
52211;DHT22;38179;52.756;6.906;2023-02-02T13:15:04;5.70;99.90
52211;DHT22;38179;52.756;6.906;2023-02-02T13:17:38;5.70;99.90
52211;DHT22;38179;52.756;6.906;2023-02-02T13:22:43;5.60;99.90
52211;DHT22;38179;52.756;6.906;2023-02-02T13:25:25;5.60;99.90
52211;DHT22;38179;52.756;6.906;2023-02-02T13:27:52;5.60;99.90
52211;DHT22;38179;52.756;6.906;2023-02-02T13:30:32;5.70;99.90
52211;DHT22;38179;52.756;6.906;2023-02-02T13:33:06;5.70;99.90
52211;DHT22;38179;52.756;6.906;2023-02-02T13:38:21;5.60;99.90
52211;DHT22;38179;52.756;6.906;2023-02-02T13:40:48;5.60;99.90
52211;DHT22;38179;52.756;6.906;2023-02-02T14:02:42;5.50;99.90
52211;DHT22;38179;52.756;6.906;2023-02-02T14:05:24;5.40;99.90
52211;DHT22;38179;52.756;6.906;2023-02-02T14:08:01;5.40;99.90
52211;DHT22;38179;52.756;6.906;2023-02-02T14:13:25;5.40;99.90
52211;DHT22;38179;52.756;6.906;2023-02-02T14:16:40;5.40;99.90
52211;DHT22;38179;52.756;6.906;2023-02-02T14:19:15;5.40;99.90
52211;DHT22;38179;52.756;6.906;2023-02-02T14:26:55;5.40;99.90
52211;DHT22;38179;52.756;6.906;2023-02-02T14:31:58;5.40;99.90
52211;DHT22;38179;52.756;6.906;2023-02-02T14:39:39;5.50;99.90
52211;DHT22;38179;52.756;6.906;2023-02-02T14:45:41;5.50;99.90
52211;DHT22;38179;52.756;6.906;2023-02-02T14:55:37;5.60;99.90
52211;DHT22;38179;52.756;6.906;2023-02-02T14:58:17;5.60;99.90
52211;DHT22;38179;52.756;6.906;2023-02-02T15:00:54;5.70;99.90
52211;DHT22;38179;52.756;6.906;2023-02-02T15:03:56;5.70;99.90
52211;DHT22;38179;52.756;6.906;2023-02-02T15:06:42;5.80;99.90
52211;DHT22;38179;52.756;6.906;2023-02-02T15:17:22;5.90;99.90
52211;DHT22;38179;52.756;6.906;2023-02-02T15:25:22;6.20;99.90
52211;DHT22;38179;52.756;6.906;2023-02-02T15:28:25;6.20;99.90
52211;DHT22;38179;52.756;6.906;2023-02-02T15:31:00;6.30;99.90
52211;DHT22;38179;52.756;6.906;2023-02-02T15:33:36;6.30;99.90
52211;DHT22;38179;52.756;6.906;2023-02-02T15:36:21;6.40;99.90
52211;DHT22;38179;52.756;6.906;2023-02-02T15:38:52;6.40;99.90
52211;DHT22;38179;52.756;6.906;2023-02-02T15:41:31;6.40;99.90
52211;DHT22;38179;52.756;6.906;2023-02-02T15:44:01;6.40;99.90
52211;DHT22;38179;52.756;6.906;2023-02-02T15:46:42;6.40;99.90
52211;DHT22;38179;52.756;6.906;2023-02-02T15:51:53;6.50;99.90
52211;DHT22;38179;52.756;6.906;2023-02-02T15:54:29;6.50;99.90
52211;DHT22;38179;52.756;6.906;2023-02-02T15:56:58;6.50;99.90
52211;DHT22;38179;52.756;6.906;2023-02-02T15:59:39;6.50;99.90
52211;DHT22;38179;52.756;6.906;2023-02-02T16:04:38;6.50;99.90
52211;DHT22;38179;52.756;6.906;2023-02-02T16:07:08;6.50;99.90
52211;DHT22;38179;52.756;6.906;2023-02-02T16:09:37;6.60;99.90
52211;DHT22;38179;52.756;6.906;2023-02-02T16:12:18;6.50;99.90
52211;DHT22;38179;52.756;6.906;2023-02-02T16:14:48;6.50;99.90
52211;DHT22;38179;52.756;6.906;2023-02-02T16:17:26;6.50;99.90
52211;DHT22;38179;52.756;6.906;2023-02-02T16:20:02;6.60;99.90
52211;DHT22;38179;52.756;6.906;2023-02-02T16:22:35;6.50;99.90
52211;DHT22;38179;52.756;6.906;2023-02-02T16:25:06;6.50;99.90
52211;DHT22;38179;52.756;6.906;2023-02-02T16:27:33;6.50;99.90
52211;DHT22;38179;52.756;6.906;2023-02-02T16:30:07;6.50;99.90
52211;DHT22;38179;52.756;6.906;2023-02-02T16:32:36;6.50;99.90
52211;DHT22;38179;52.756;6.906;2023-02-02T16:35:05;6.50;99.90
52211;DHT22;38179;52.756;6.906;2023-02-02T16:37:34;6.50;99.90
52211;DHT22;38179;52.756;6.906;2023-02-02T16:43:03;6.60;99.90
52211;DHT22;38179;52.756;6.906;2023-02-02T16:45:46;6.60;99.90
52211;DHT22;38179;52.756;6.906;2023-02-02T16:48:34;6.60;99.90
52211;DHT22;38179;52.756;6.906;2023-02-02T16:53:30;6.60;99.90
52211;DHT22;38179;52.756;6.906;2023-02-02T16:55:57;6.60;99.90
52211;DHT22;38179;52.756;6.906;2023-02-02T16:58:24;6.60;99.90
52211;DHT22;38179;52.756;6.906;2023-02-02T17:01:02;6.60;99.90
52211;DHT22;38179;52.756;6.906;2023-02-02T17:03:33;6.60;99.90
52211;DHT22;38179;52.756;6.906;2023-02-02T17:06:01;6.60;99.90
52211;DHT22;38179;52.756;6.906;2023-02-02T17:08:31;6.60;99.90
52211;DHT22;38179;52.756;6.906;2023-02-02T17:11:19;6.70;99.90
52211;DHT22;38179;52.756;6.906;2023-02-02T17:13:46;6.70;99.90
52211;DHT22;38179;52.756;6.906;2023-02-02T17:16:19;6.70;99.90
52211;DHT22;38179;52.756;6.906;2023-02-02T17:18:46;6.70;99.90
52211;DHT22;38179;52.756;6.906;2023-02-02T17:21:14;6.70;99.90
52211;DHT22;38179;52.756;6.906;2023-02-02T17:23:42;6.70;99.90
52211;DHT22;38179;52.756;6.906;2023-02-02T17:26:09;6.70;99.90
52211;DHT22;38179;52.756;6.906;2023-02-02T17:28:38;6.80;99.90
52211;DHT22;38179;52.756;6.906;2023-02-02T17:31:08;6.80;99.90
52211;DHT22;38179;52.756;6.906;2023-02-02T17:33:35;6.80;99.90
52211;DHT22;38179;52.756;6.906;2023-02-02T17:36:02;6.80;99.90
52211;DHT22;38179;52.756;6.906;2023-02-02T17:38:28;6.80;99.90
52211;DHT22;38179;52.756;6.906;2023-02-02T17:40:55;6.80;99.90
52211;DHT22;38179;52.756;6.906;2023-02-02T17:43:23;6.80;99.90
52211;DHT22;38179;52.756;6.906;2023-02-02T17:45:48;6.80;99.90
52211;DHT22;38179;52.756;6.906;2023-02-02T17:48:16;6.80;99.90
52211;DHT22;38179;52.756;6.906;2023-02-02T17:50:42;6.80;99.90
52211;DHT22;38179;52.756;6.906;2023-02-02T17:53:11;6.90;99.90
52211;DHT22;38179;52.756;6.906;2023-02-02T17:55:39;6.80;99.90
52211;DHT22;38179;52.756;6.906;2023-02-02T17:58:07;6.90;99.90
52211;DHT22;38179;52.756;6.906;2023-02-02T18:00:33;6.80;99.90
52211;DHT22;38179;52.756;6.906;2023-02-02T18:03:23;6.90;99.90
52211;DHT22;38179;52.756;6.906;2023-02-02T18:05:51;6.90;99.90
52211;DHT22;38179;52.756;6.906;2023-02-02T18:08:17;6.90;99.90
52211;DHT22;38179;52.756;6.906;2023-02-02T18:10:44;6.90;99.90
52211;DHT22;38179;52.756;6.906;2023-02-02T18:13:15;6.90;99.90
52211;DHT22;38179;52.756;6.906;2023-02-02T18:15:42;7.00;99.90
52211;DHT22;38179;52.756;6.906;2023-02-02T18:18:08;7.00;99.90
52211;DHT22;38179;52.756;6.906;2023-02-02T18:20:40;7.00;99.90
52211;DHT22;38179;52.756;6.906;2023-02-02T18:23:07;7.00;99.90
52211;DHT22;38179;52.756;6.906;2023-02-02T18:25:33;7.00;99.90
52211;DHT22;38179;52.756;6.906;2023-02-02T18:27:59;7.00;99.90
52211;DHT22;38179;52.756;6.906;2023-02-02T18:30:25;7.00;99.90
52211;DHT22;38179;52.756;6.906;2023-02-02T18:32:51;7.00;99.90
52211;DHT22;38179;52.756;6.906;2023-02-02T18:35:17;7.00;99.90
52211;DHT22;38179;52.756;6.906;2023-02-02T18:37:43;7.00;99.90
52211;DHT22;38179;52.756;6.906;2023-02-02T18:40:10;7.00;99.90
52211;DHT22;38179;52.756;6.906;2023-02-02T18:42:36;7.00;99.90
52211;DHT22;38179;52.756;6.906;2023-02-02T18:45:03;7.00;99.90
52211;DHT22;38179;52.756;6.906;2023-02-02T18:47:30;7.00;99.90
52211;DHT22;38179;52.756;6.906;2023-02-02T18:49:56;7.00;99.90
52211;DHT22;38179;52.756;6.906;2023-02-02T18:52:22;7.00;99.90
52211;DHT22;38179;52.756;6.906;2023-02-02T18:54:48;7.00;99.90
52211;DHT22;38179;52.756;6.906;2023-02-02T18:57:14;7.00;99.90